createdAt,value
2022-12-20T00:01:55.113Z,51.93
2022-12-20T00:04:25.182Z,51.97
2022-12-20T00:06:53.429Z,51.94
2022-12-20T00:09:21.735Z,51.80
2022-12-20T00:11:50.156Z,51.75
2022-12-20T00:14:18.679Z,51.85
2022-12-20T00:16:46.912Z,52.06
2022-12-20T00:19:15.224Z,51.72
2022-12-20T00:21:44.820Z,51.98
2022-12-20T00:24:13.066Z,51.91
2022-12-20T00:26:41.401Z,51.97
2022-12-20T00:29:10.046Z,51.99
2022-12-20T00:31:39.987Z,51.97
2022-12-20T00:34:08.241Z,52.12
2022-12-20T00:36:36.644Z,51.98
2022-12-20T00:39:06.725Z,51.97
2022-12-20T00:41:36.207Z,51.92
2022-12-20T00:44:05.713Z,51.81
2022-12-20T00:46:35.661Z,52.04
2022-12-20T00:49:04.022Z,51.92
2022-12-20T00:51:33.779Z,51.99
2022-12-20T00:54:02.298Z,51.88
2022-12-20T00:56:31.922Z,51.79
2022-12-20T00:59:00.819Z,52.00
2022-12-20T01:01:32.586Z,51.82
2022-12-20T01:04:01.455Z,51.61
2022-12-20T01:06:31.015Z,51.69
2022-12-20T01:09:00.365Z,51.81
2022-12-20T01:11:32.441Z,51.76
2022-12-20T01:14:03.520Z,51.58
2022-12-20T01:16:35.655Z,51.44
2022-12-20T01:19:04.444Z,51.62
2022-12-20T01:21:33.014Z,51.82
2022-12-20T01:24:01.314Z,51.94
2022-12-20T01:26:32.027Z,51.54
2022-12-20T01:29:01.751Z,51.82
2022-12-20T01:31:31.520Z,51.70
2022-12-20T01:34:01.325Z,51.78
2022-12-20T01:36:32.930Z,51.76
2022-12-20T01:39:04.292Z,51.72
2022-12-20T01:41:35.294Z,51.65
2022-12-20T01:44:06.100Z,51.68
2022-12-20T01:46:37.197Z,51.59
2022-12-20T01:49:11.849Z,51.66
2022-12-20T01:51:45.724Z,51.61
2022-12-20T01:54:18.118Z,51.57
2022-12-20T01:56:53.751Z,51.86
2022-12-20T01:59:22.185Z,51.45
2022-12-20T02:01:51.478Z,51.59
2022-12-20T02:04:20.076Z,51.51
2022-12-20T02:06:48.308Z,51.53
2022-12-20T02:09:17.765Z,51.58
2022-12-20T02:12:09.163Z,51.54
2022-12-20T02:14:55.925Z,51.69
2022-12-20T02:17:40.407Z,51.58
2022-12-20T02:20:56.568Z,51.69
2022-12-20T02:24:23.147Z,51.75
2022-12-20T02:27:33.432Z,51.90
2022-12-20T02:30:11.439Z,52.08
2022-12-20T02:32:47.946Z,52.14
2022-12-20T02:35:23.752Z,52.01
2022-12-20T02:37:54.825Z,52.15
2022-12-20T02:40:27.662Z,52.03
2022-12-20T02:43:01.026Z,52.12
2022-12-20T02:45:35.162Z,52.16
2022-12-20T02:48:08.371Z,52.09
2022-12-20T02:50:40.211Z,51.95
2022-12-20T02:53:10.635Z,52.21
2022-12-20T02:55:47.917Z,52.04
2022-12-20T02:58:29.387Z,52.18
2022-12-20T03:01:04.522Z,52.30
2022-12-20T03:03:34.195Z,52.08
2022-12-20T03:06:03.087Z,52.28
2022-12-20T03:08:31.768Z,52.26
2022-12-20T03:11:00.247Z,52.32
2022-12-20T03:13:28.563Z,52.21
2022-12-20T03:15:58.264Z,52.25
2022-12-20T03:18:26.547Z,52.31
2022-12-20T03:20:55.755Z,52.44
2022-12-20T03:23:23.991Z,52.35
2022-12-20T03:25:52.326Z,52.04
2022-12-20T03:28:20.667Z,52.24
2022-12-20T03:30:49.313Z,52.50
2022-12-20T03:33:18.966Z,52.33
2022-12-20T03:35:49.206Z,52.37
2022-12-20T03:38:17.514Z,52.23
2022-12-20T03:40:45.860Z,52.30
2022-12-20T03:43:14.434Z,52.26
2022-12-20T03:45:42.743Z,52.24
2022-12-20T03:48:11.039Z,52.34
2022-12-20T03:50:40.777Z,52.22
2022-12-20T03:53:09.155Z,52.25
2022-12-20T03:55:37.626Z,52.27
2022-12-20T03:58:05.944Z,52.15
2022-12-20T04:00:34.704Z,52.17
2022-12-20T04:03:03.037Z,52.22
2022-12-20T04:05:31.425Z,52.14
2022-12-20T04:08:01.126Z,52.25
2022-12-20T04:10:29.388Z,52.09
2022-12-20T04:12:57.659Z,52.10
2022-12-20T04:15:25.994Z,52.13
2022-12-20T04:17:54.280Z,52.51
2022-12-20T04:20:22.556Z,52.44
2022-12-20T04:22:53.154Z,52.41
2022-12-20T04:25:23.168Z,52.60
2022-12-20T04:27:51.447Z,52.50
2022-12-20T04:30:20.046Z,52.63
2022-12-20T04:32:48.274Z,52.35
2022-12-20T04:35:16.670Z,52.56
2022-12-20T04:37:44.933Z,52.32
2022-12-20T04:40:14.519Z,52.33
2022-12-20T04:42:44.107Z,52.37
2022-12-20T04:45:13.068Z,52.58
2022-12-20T04:47:41.314Z,52.36
2022-12-20T04:50:10.645Z,52.42
2022-12-20T04:52:56.340Z,52.42
2022-12-20T04:55:25.518Z,52.54
2022-12-20T04:57:55.091Z,52.63
2022-12-20T05:00:23.523Z,52.46
2022-12-20T05:02:52.278Z,52.46
2022-12-20T05:05:20.711Z,52.49
2022-12-20T05:07:49.016Z,52.64
2022-12-20T05:10:17.399Z,52.51
2022-12-20T05:12:45.795Z,52.51
2022-12-20T05:15:15.462Z,52.55
2022-12-20T05:17:43.735Z,52.43
2022-12-20T05:20:13.772Z,52.61
2022-12-20T05:22:59.304Z,52.35
2022-12-20T05:25:44.740Z,52.42
2022-12-20T05:28:12.993Z,52.31
2022-12-20T05:30:42.587Z,52.52
2022-12-20T05:33:12.750Z,52.50
2022-12-20T05:35:41.801Z,52.28
2022-12-20T05:38:10.093Z,52.34
2022-12-20T05:40:38.556Z,52.25
2022-12-20T05:43:07.315Z,52.21
2022-12-20T05:45:36.174Z,52.12
2022-12-20T05:48:06.086Z,52.20
2022-12-20T05:50:34.331Z,52.10
2022-12-20T05:53:06.044Z,52.07
2022-12-20T05:55:40.492Z,51.97
2022-12-20T05:58:08.993Z,52.04
2022-12-20T06:00:37.441Z,52.13
2022-12-20T06:03:07.212Z,52.07
2022-12-20T06:05:35.516Z,52.06
2022-12-20T06:08:03.879Z,52.12
2022-12-20T06:10:32.535Z,52.04
2022-12-20T06:13:01.029Z,52.19
2022-12-20T06:15:29.397Z,52.23
2022-12-20T06:17:58.092Z,52.25
2022-12-20T06:20:27.855Z,52.29
2022-12-20T06:22:56.104Z,52.39
2022-12-20T06:25:24.350Z,52.31
2022-12-20T06:27:52.644Z,52.47
2022-12-20T06:30:21.289Z,52.45
2022-12-20T06:32:49.750Z,52.49
2022-12-20T06:35:18.165Z,52.66
2022-12-20T06:37:47.813Z,52.16
2022-12-20T06:40:16.495Z,52.75
2022-12-20T06:42:44.985Z,52.64
2022-12-20T06:45:13.458Z,52.77
2022-12-20T06:47:41.672Z,52.75
2022-12-20T06:50:10.381Z,52.68
2022-12-20T06:52:38.621Z,52.91
2022-12-20T06:55:09.839Z,52.84
2022-12-20T06:57:38.142Z,52.93
2022-12-20T07:00:11.123Z,52.88
2022-12-20T07:02:39.578Z,52.88
2022-12-20T07:05:08.851Z,52.95
2022-12-20T07:07:44.404Z,53.00
2022-12-20T07:10:14.988Z,52.94
2022-12-20T07:12:47.781Z,52.74
2022-12-20T07:15:17.654Z,53.03
2022-12-20T07:17:46.546Z,52.90
2022-12-20T07:20:15.157Z,52.99
2022-12-20T07:22:43.667Z,53.01
2022-12-20T07:25:12.189Z,53.01
2022-12-20T07:27:41.783Z,53.06
2022-12-20T07:30:11.000Z,53.01
2022-12-20T07:32:39.254Z,52.97
2022-12-20T07:35:08.897Z,52.98
2022-12-20T07:37:37.164Z,53.19
2022-12-20T07:40:07.592Z,53.08
2022-12-20T07:42:39.117Z,53.20
2022-12-20T07:45:12.002Z,53.20
2022-12-20T07:47:40.237Z,53.30
2022-12-20T07:50:10.463Z,53.06
2022-12-20T07:52:39.543Z,53.09
2022-12-20T07:55:10.352Z,53.27
2022-12-20T07:57:44.627Z,53.28
2022-12-20T08:00:18.733Z,53.06
2022-12-20T08:02:55.037Z,53.16
2022-12-20T08:05:24.698Z,53.25
2022-12-20T08:07:58.936Z,53.27
2022-12-20T08:10:28.720Z,53.38
2022-12-20T08:12:57.535Z,53.45
2022-12-20T08:15:27.517Z,53.59
2022-12-20T08:17:55.745Z,53.60
2022-12-20T08:20:24.109Z,53.57
2022-12-20T08:22:52.359Z,53.68
2022-12-20T08:25:21.558Z,53.66
2022-12-20T08:27:49.967Z,53.85
2022-12-20T08:30:18.860Z,53.57
2022-12-20T08:32:48.569Z,53.81
2022-12-20T08:35:16.932Z,53.62
2022-12-20T08:37:45.209Z,53.89
2022-12-20T08:40:14.724Z,53.68
2022-12-20T08:42:43.009Z,53.65
2022-12-20T08:45:12.416Z,53.76
2022-12-20T08:47:40.981Z,53.56
2022-12-20T08:50:11.815Z,53.51
2022-12-20T08:52:40.251Z,53.66
2022-12-20T08:55:12.771Z,53.67
2022-12-20T08:57:41.433Z,53.59
2022-12-20T09:00:12.006Z,53.75
2022-12-20T09:02:41.377Z,53.48
2022-12-20T09:05:11.783Z,53.48
2022-12-20T09:07:39.999Z,53.70
2022-12-20T09:10:10.432Z,53.68
2022-12-20T09:12:39.425Z,53.51
2022-12-20T09:15:09.653Z,53.53
2022-12-20T09:17:37.863Z,53.45
2022-12-20T09:20:07.940Z,53.64
2022-12-20T09:22:37.529Z,53.47
2022-12-20T09:25:07.466Z,53.64
2022-12-20T09:27:35.736Z,53.63
2022-12-20T09:30:04.019Z,53.67
2022-12-20T09:32:32.278Z,53.83
2022-12-20T09:35:00.517Z,53.57
2022-12-20T09:37:32.281Z,53.65
2022-12-20T09:40:01.977Z,53.54
2022-12-20T09:42:31.390Z,53.91
2022-12-20T09:45:06.397Z,54.03
2022-12-20T09:47:37.202Z,53.79
2022-12-20T09:50:07.832Z,53.91
2022-12-20T09:52:59.125Z,53.98
2022-12-20T09:55:36.546Z,53.88
2022-12-20T09:58:28.794Z,53.67
2022-12-20T10:00:57.979Z,53.82
2022-12-20T10:03:32.901Z,53.79
2022-12-20T10:06:10.532Z,53.75
2022-12-20T10:08:52.033Z,54.06
2022-12-20T10:11:59.406Z,53.94
2022-12-20T10:14:52.660Z,54.27
2022-12-20T10:17:34.090Z,54.01
2022-12-20T10:20:23.440Z,54.22
2022-12-20T10:22:58.806Z,54.14
2022-12-20T10:25:32.754Z,53.85
2022-12-20T10:28:10.841Z,54.00
2022-12-20T10:30:39.115Z,53.71
2022-12-20T10:33:07.376Z,53.74
2022-12-20T10:35:40.979Z,54.03
2022-12-20T10:38:12.762Z,53.99
2022-12-20T10:41:19.520Z,53.66
2022-12-20T10:43:43.905Z,53.69
2022-12-20T10:46:13.411Z,53.48
2022-12-20T10:48:44.502Z,53.27
2022-12-20T10:51:19.323Z,53.45
2022-12-20T10:54:01.253Z,53.16
2022-12-20T10:56:32.524Z,53.20
2022-12-20T10:59:06.642Z,53.00
2022-12-20T11:01:37.953Z,52.77
2022-12-20T11:04:08.734Z,52.97
2022-12-20T11:06:47.115Z,52.81
2022-12-20T11:09:31.725Z,52.67
2022-12-20T11:12:07.543Z,52.64
2022-12-20T11:14:40.059Z,52.40
2022-12-20T11:17:32.809Z,52.40
2022-12-20T11:20:32.048Z,52.69
2022-12-20T11:23:17.182Z,52.39
2022-12-20T11:26:05.924Z,52.30
2022-12-20T11:28:55.995Z,52.11
2022-12-20T11:31:42.785Z,52.01
2022-12-20T11:34:31.415Z,51.54
2022-12-20T11:37:20.746Z,51.51
2022-12-20T11:40:20.382Z,51.52
2022-12-20T11:43:06.172Z,51.50
2022-12-20T11:45:50.765Z,51.29
2022-12-20T11:48:47.180Z,51.00
2022-12-20T11:51:26.975Z,51.16
2022-12-20T11:54:02.507Z,51.11
2022-12-20T11:56:43.536Z,51.02
2022-12-20T11:59:22.138Z,50.93
2022-12-20T12:02:01.622Z,51.17
2022-12-20T12:04:36.540Z,51.00
2022-12-20T12:07:11.777Z,50.98
2022-12-20T12:09:50.923Z,50.81
2022-12-20T12:12:26.450Z,50.90
2022-12-20T12:15:01.751Z,50.90
2022-12-20T12:17:39.544Z,50.99
2022-12-20T12:20:25.672Z,50.83
2022-12-20T12:23:00.310Z,50.98
2022-12-20T12:25:28.924Z,50.70
2022-12-20T12:27:57.276Z,50.81
2022-12-20T12:30:25.882Z,50.73
2022-12-20T12:32:57.110Z,50.81
2022-12-20T12:36:25.223Z,50.77
2022-12-20T12:39:51.016Z,51.01
2022-12-20T12:42:56.630Z,50.63
2022-12-20T12:45:29.489Z,50.89
2022-12-20T12:48:04.091Z,50.63
2022-12-20T12:50:37.849Z,50.70
2022-12-20T12:53:13.040Z,50.87
2022-12-20T12:55:45.527Z,50.96
2022-12-20T12:58:35.625Z,50.65
2022-12-20T13:01:09.580Z,50.67
2022-12-20T13:03:46.734Z,50.92
2022-12-20T13:06:58.806Z,50.78
2022-12-20T13:09:43.511Z,50.98
2022-12-20T13:12:59.007Z,51.00
2022-12-20T13:16:10.623Z,50.90
2022-12-20T13:18:39.317Z,51.10
2022-12-20T13:21:39.366Z,50.84
2022-12-20T13:24:58.625Z,50.98
2022-12-20T13:27:31.380Z,50.89
2022-12-20T13:30:30.618Z,50.87
2022-12-20T13:33:19.786Z,50.60
2022-12-20T13:36:32.819Z,50.79
2022-12-20T13:39:03.355Z,50.66
2022-12-20T13:41:49.770Z,50.89
2022-12-20T13:44:36.544Z,50.84
2022-12-20T13:47:18.535Z,50.33
2022-12-20T13:49:47.434Z,50.63
2022-12-20T13:52:29.167Z,50.56
2022-12-20T13:55:00.685Z,50.26
2022-12-20T13:57:34.472Z,50.42
2022-12-20T14:00:08.930Z,50.71
2022-12-20T14:02:43.625Z,50.74
2022-12-20T14:05:21.168Z,50.50
2022-12-20T14:07:57.793Z,50.51
2022-12-20T14:10:28.917Z,50.46
2022-12-20T14:12:58.818Z,50.33
2022-12-20T14:15:31.477Z,50.26
2022-12-20T14:18:07.849Z,50.28
2022-12-20T14:20:38.098Z,50.19
2022-12-20T14:23:11.407Z,50.11
2022-12-20T14:25:45.011Z,50.54
2022-12-20T14:28:31.110Z,50.25
2022-12-20T14:31:01.967Z,50.51
2022-12-20T14:33:37.789Z,50.46
2022-12-20T14:36:12.530Z,50.22
2022-12-20T14:38:42.775Z,50.37
2022-12-20T14:41:32.518Z,50.57
2022-12-20T14:44:12.953Z,50.49
2022-12-20T14:46:48.551Z,50.39
2022-12-20T14:49:26.075Z,50.45
2022-12-20T14:52:12.766Z,50.67
2022-12-20T14:57:44.299Z,50.76
2022-12-20T15:00:22.873Z,50.55
2022-12-20T15:03:00.825Z,50.55
2022-12-20T15:05:49.691Z,50.71
2022-12-20T15:08:22.179Z,50.48
2022-12-20T15:10:55.797Z,50.60
2022-12-20T15:13:30.570Z,50.49
2022-12-20T15:16:04.668Z,50.45
2022-12-20T15:18:33.940Z,50.61
2022-12-20T15:21:06.943Z,50.38
2022-12-20T15:23:36.106Z,50.59
2022-12-20T15:26:04.610Z,50.69
2022-12-20T15:28:33.446Z,50.60
2022-12-20T15:31:05.130Z,50.70
2022-12-20T15:33:36.421Z,50.51
2022-12-20T15:36:04.889Z,50.71
2022-12-20T15:41:25.373Z,50.62
2022-12-20T15:43:57.637Z,50.82
2022-12-20T15:46:27.652Z,50.92
2022-12-20T15:48:56.557Z,51.12
2022-12-20T15:51:30.083Z,50.80
2022-12-20T15:53:59.130Z,50.61
2022-12-20T15:56:29.084Z,50.90
2022-12-20T15:58:57.840Z,50.81
2022-12-20T16:01:40.021Z,50.75
2022-12-20T16:04:15.256Z,50.91
2022-12-20T16:06:44.595Z,50.62
2022-12-20T16:09:13.613Z,51.12
2022-12-20T16:11:42.524Z,50.68
2022-12-20T16:14:17.476Z,50.70
2022-12-20T16:16:48.717Z,50.96
2022-12-20T16:19:17.369Z,50.62
2022-12-20T16:21:49.213Z,50.70
2022-12-20T16:24:21.400Z,50.78
2022-12-20T16:26:50.390Z,50.66
2022-12-20T16:31:49.515Z,50.48
2022-12-20T16:34:19.917Z,50.56
2022-12-20T16:36:48.522Z,50.39
2022-12-20T16:39:16.767Z,50.72
2022-12-20T16:41:45.313Z,50.75
2022-12-20T16:44:16.200Z,50.39
2022-12-20T16:46:45.644Z,50.53
2022-12-20T16:49:20.511Z,50.76
2022-12-20T16:51:50.887Z,50.81
2022-12-20T16:54:22.472Z,50.72
2022-12-20T16:56:55.498Z,50.53
2022-12-20T16:59:24.334Z,50.78
2022-12-20T17:01:55.835Z,50.74
2022-12-20T17:04:26.724Z,50.98
2022-12-20T17:06:55.300Z,50.79
2022-12-20T17:12:16.524Z,50.92
2022-12-20T17:14:45.051Z,50.85
2022-12-20T17:17:13.688Z,50.84
2022-12-20T17:19:43.908Z,51.10
2022-12-20T17:25:00.383Z,50.87
2022-12-20T17:27:28.677Z,50.73
2022-12-20T17:29:57.000Z,50.79
2022-12-20T17:32:26.543Z,50.94
2022-12-20T17:34:56.444Z,51.14
2022-12-20T17:37:25.025Z,50.60
2022-12-20T17:39:53.283Z,50.78
2022-12-20T17:42:27.071Z,50.71
2022-12-20T17:44:59.082Z,51.05
2022-12-20T17:47:27.374Z,50.75
2022-12-20T17:49:57.069Z,50.67
2022-12-20T17:52:26.557Z,50.79
2022-12-20T17:54:54.904Z,50.72
2022-12-20T17:57:23.254Z,50.99
2022-12-20T17:59:51.561Z,50.86
2022-12-20T18:02:27.385Z,50.83
2022-12-20T18:04:57.185Z,51.04
2022-12-20T18:07:25.481Z,50.81
2022-12-20T18:09:53.801Z,50.92
2022-12-20T18:12:22.089Z,50.85
2022-12-20T18:14:50.822Z,50.75
2022-12-20T18:17:19.298Z,50.74
2022-12-20T18:19:47.606Z,50.97
2022-12-20T18:22:17.276Z,51.09
2022-12-20T18:24:45.535Z,51.09
2022-12-20T18:27:13.959Z,51.03
2022-12-20T18:29:42.322Z,50.75
2022-12-20T18:32:10.710Z,50.79
2022-12-20T18:34:39.146Z,51.00
2022-12-20T18:37:07.459Z,50.69
2022-12-20T18:39:37.419Z,50.87
2022-12-20T18:42:05.982Z,50.70
2022-12-20T18:44:35.962Z,50.84
2022-12-20T18:47:04.999Z,50.65
2022-12-20T18:49:33.242Z,50.59
2022-12-20T18:52:01.484Z,50.93
2022-12-20T18:54:30.907Z,50.95
2022-12-20T18:57:00.554Z,50.98
2022-12-20T18:59:28.884Z,50.90
2022-12-20T19:01:57.243Z,50.80
2022-12-20T19:04:25.627Z,50.94
2022-12-20T19:06:53.916Z,51.18
2022-12-20T19:09:22.559Z,51.00
2022-12-20T19:11:56.626Z,50.82
2022-12-20T19:14:27.368Z,51.17
2022-12-20T19:16:55.817Z,50.84
2022-12-20T19:19:24.100Z,50.98
2022-12-20T19:21:52.379Z,51.19
2022-12-20T19:24:21.378Z,50.95
2022-12-20T19:26:49.703Z,51.15
2022-12-20T19:29:18.217Z,51.22
2022-12-20T19:31:48.006Z,51.35
2022-12-20T19:34:16.434Z,50.91
2022-12-20T19:36:47.136Z,51.29
2022-12-20T19:39:20.014Z,51.32
2022-12-20T19:42:15.646Z,51.39
2022-12-20T19:44:37.117Z,51.37
2022-12-20T19:47:07.105Z,51.22
2022-12-20T19:49:36.697Z,51.27
2022-12-20T19:52:05.819Z,50.93
2022-12-20T19:54:34.172Z,51.36
2022-12-20T19:57:02.605Z,51.37
2022-12-20T19:59:31.419Z,51.41
2022-12-20T20:01:59.774Z,51.48
2022-12-20T20:04:29.947Z,51.17
2022-12-20T20:06:58.373Z,51.18
2022-12-20T20:09:26.675Z,51.41
2022-12-20T20:11:54.986Z,51.55
2022-12-20T20:14:23.773Z,51.44
2022-12-20T20:16:52.058Z,51.14
2022-12-20T20:19:20.770Z,51.40
2022-12-20T20:21:50.515Z,51.20
2022-12-20T20:24:18.900Z,51.58
2022-12-20T20:26:47.215Z,51.23
2022-12-20T20:29:15.513Z,51.79
2022-12-20T20:31:43.900Z,51.52
2022-12-20T20:34:12.465Z,51.66
2022-12-20T20:36:40.760Z,51.33
2022-12-20T20:39:10.535Z,51.53
2022-12-20T20:41:38.823Z,51.45
2022-12-20T20:44:07.264Z,51.36
2022-12-20T20:46:35.637Z,51.57
2022-12-20T20:49:03.969Z,51.71
2022-12-20T20:51:32.303Z,51.38
2022-12-20T20:54:00.620Z,51.29
2022-12-20T20:56:30.372Z,51.57
2022-12-20T20:59:04.572Z,51.89
2022-12-20T21:01:33.696Z,51.76
2022-12-20T21:04:02.195Z,51.64
2022-12-20T21:06:40.040Z,51.89
2022-12-20T21:09:09.286Z,51.64
2022-12-20T21:11:39.106Z,51.59
2022-12-20T21:14:07.688Z,51.91
2022-12-20T21:16:36.722Z,51.59
2022-12-20T21:19:05.756Z,52.00
2022-12-20T21:21:34.038Z,51.81
2022-12-20T21:24:02.326Z,51.73
2022-12-20T21:26:30.647Z,51.88
2022-12-20T21:29:01.062Z,51.86
2022-12-20T21:31:29.689Z,51.92
2022-12-20T21:33:58.700Z,51.78
2022-12-20T21:36:27.160Z,52.14
2022-12-20T21:38:58.396Z,51.68
2022-12-20T21:41:29.092Z,52.22
2022-12-20T21:44:00.390Z,51.87
2022-12-20T21:46:31.921Z,52.06
2022-12-20T21:49:00.812Z,52.12
2022-12-20T21:51:30.592Z,52.23
2022-12-20T21:54:01.345Z,52.29
2022-12-20T21:56:31.998Z,51.85
2022-12-20T21:59:02.519Z,52.28
2022-12-20T22:01:31.210Z,51.98
2022-12-20T22:04:02.456Z,52.01
2022-12-20T22:06:31.523Z,51.87
2022-12-20T22:09:00.388Z,51.92
2022-12-20T22:11:29.391Z,52.09
2022-12-20T22:13:58.884Z,51.89
2022-12-20T22:16:31.884Z,52.05
2022-12-20T22:19:00.915Z,52.03
2022-12-20T22:21:31.248Z,52.26
2022-12-20T22:24:00.856Z,52.24
2022-12-20T22:26:31.598Z,52.09
2022-12-20T22:29:03.407Z,52.06
2022-12-20T22:31:33.212Z,52.00
2022-12-20T22:34:02.033Z,52.13
2022-12-20T22:36:30.531Z,52.15
2022-12-20T22:38:59.218Z,52.10
2022-12-20T22:41:29.943Z,52.09
2022-12-20T22:44:00.145Z,51.74
2022-12-20T22:46:30.289Z,52.06
2022-12-20T22:49:01.475Z,51.91
2022-12-20T22:51:31.819Z,51.80
2022-12-20T22:54:00.862Z,51.79
2022-12-20T22:56:29.946Z,52.22
2022-12-20T22:58:58.233Z,52.13
2022-12-20T23:01:26.734Z,51.77
2022-12-20T23:03:55.233Z,52.06
2022-12-20T23:06:24.893Z,52.05
2022-12-20T23:08:53.128Z,52.12
2022-12-20T23:11:40.948Z,52.02
2022-12-20T23:14:32.587Z,52.15
2022-12-20T23:17:01.501Z,51.94
2022-12-20T23:19:50.132Z,52.03
2022-12-20T23:22:37.903Z,52.16
2022-12-20T23:25:08.729Z,52.40
2022-12-20T23:27:37.496Z,52.02
2022-12-20T23:30:08.499Z,52.03
2022-12-20T23:32:37.036Z,52.35
2022-12-20T23:35:12.251Z,52.19
2022-12-20T23:37:42.849Z,51.96
2022-12-20T23:40:13.690Z,52.01
2022-12-20T23:42:41.905Z,52.23
2022-12-20T23:45:11.688Z,52.31
2022-12-20T23:47:40.019Z,52.21
2022-12-20T23:50:09.651Z,51.99
2022-12-20T23:52:37.931Z,51.94
2022-12-20T23:55:08.610Z,52.11
2022-12-20T23:57:36.847Z,52.26
